Time;durP1;ratioP1;P1;durP2;ratioP2;P2;SDS_P1;SDS_P2;PMS_P1;PMS_P2;Temp;Humidity;BMP_temperature;BMP_pressure;BME280_temperature;BME280_humidity;BME280_pressure;Samples;Min_cycle;Max_cycle;Signal;HPM_P1;HPM_P2
2022/06/20 00:01:01;;;;;;;14.65;8.55;;;;;;;29.02;45.43;94880.81;5033229;28;20222;-81
2022/06/20 00:03:30;;;;;;;14.68;8.95;;;;;;;29.00;45.70;94882.19;5033329;28;20826;-82
2022/06/20 00:05:57;;;;;;;18.77;9.40;;;;;;;28.93;46.16;94881.88;5033651;28;20264;-83
2022/06/20 00:08:24;;;;;;;10.90;8.48;;;;;;;28.90;46.10;94883.25;5033646;28;20206;-82
2022/06/20 00:10:51;;;;;;;17.60;9.13;;;;;;;28.87;46.06;94892.59;5032948;28;20225;-82
2022/06/20 00:13:20;;;;;;;14.52;8.65;;;;;;;28.79;46.55;94888.06;5032866;28;20229;-82
2022/06/20 00:15:50;;;;;;;15.80;8.75;;;;;;;28.81;46.26;94883.25;5033064;28;20216;-83
2022/06/20 00:18:17;;;;;;;15.38;9.13;;;;;;;28.76;46.54;94875.41;5034334;28;20210;-81
2022/06/20 00:20:44;;;;;;;17.65;9.88;;;;;;;28.68;47.00;94873.50;5032868;28;20222;-83
2022/06/20 00:23:10;;;;;;;14.68;8.77;;;;;;;28.62;47.04;94869.47;5033404;28;20230;-83
2022/06/20 00:25:40;;;;;;;12.10;8.73;;;;;;;28.57;47.12;94866.16;5033541;28;20272;-82
2022/06/20 00:28:07;;;;;;;16.90;9.60;;;;;;;28.56;46.92;94865.38;5034267;28;20289;-81
2022/06/20 00:30:34;;;;;;;11.50;8.32;;;;;;;28.50;46.98;94862.09;5032522;28;20659;-82
2022/06/20 00:33:03;;;;;;;16.88;8.38;;;;;;;28.47;47.66;94860.06;5033596;28;20230;-83
2022/06/20 00:35:29;;;;;;;14.10;8.30;;;;;;;28.44;47.78;94865.97;5034333;28;20249;-83
2022/06/20 00:37:59;;;;;;;16.67;8.35;;;;;;;28.41;47.41;94866.59;5033620;28;20194;-81
2022/06/20 00:40:30;;;;;;;13.98;8.88;;;;;;;28.41;47.27;94863.16;5032208;28;20217;-83
2022/06/20 00:42:58;;;;;;;15.63;8.93;;;;;;;28.38;47.09;94869.06;5033003;28;20226;-82
2022/06/20 00:45:26;;;;;;;13.68;8.75;;;;;;;28.38;47.15;94867.19;5033052;28;20248;-82
2022/06/20 00:47:57;;;;;;;15.15;9.38;;;;;;;28.38;47.38;94866.41;5032788;28;20194;-83
2022/06/20 00:50:30;;;;;;;14.60;9.00;;;;;;;28.35;46.85;94862.50;5032559;28;20364;-83
2022/06/20 00:53:03;;;;;;;14.88;8.68;;;;;;;28.33;46.95;94867.31;5032082;28;20713;-81
2022/06/20 00:55:34;;;;;;;17.98;8.80;;;;;;;28.30;46.83;94859.22;5032751;28;20216;-83
2022/06/20 00:58:05;;;;;;;13.00;8.50;;;;;;;28.27;46.98;94851.91;5033060;28;20293;-83
2022/06/20 01:00:36;;;;;;;13.13;8.30;;;;;;;28.29;46.73;94852.38;5032131;28;20226;-83
2022/06/20 01:03:07;;;;;;;14.93;8.90;;;;;;;28.29;46.62;94858.44;5032428;28;20284;-82
2022/06/20 01:05:38;;;;;;;13.95;8.65;;;;;;;28.25;47.03;94867.31;5021712;28;20285;-81
2022/06/20 01:08:09;;;;;;;14.82;8.75;;;;;;;28.19;46.78;94867.44;5032940;28;20205;-82
2022/06/20 01:10:43;;;;;;;15.98;9.02;;;;;;;28.13;47.00;94867.81;5012357;28;20230;-82
2022/06/20 01:13:16;;;;;;;13.85;8.00;;;;;;;28.10;47.06;94873.72;5012864;28;20706;-81
2022/06/20 01:15:44;;;;;;;13.30;8.75;;;;;;;28.08;46.84;94867.97;5021377;28;20198;-83
2022/06/20 01:18:16;;;;;;;15.60;8.57;;;;;;;28.07;46.96;94879.66;5033188;28;20629;-82
2022/06/20 01:20:46;;;;;;;12.43;8.43;;;;;;;28.02;46.76;94869.19;5032412;28;20222;-80
2022/06/20 01:23:26;;;;;;;13.02;8.40;;;;;;;27.96;46.94;94873.03;5032417;28;20230;-83
2022/06/20 01:26:03;;;;;;;14.60;8.55;;;;;;;27.85;47.44;94872.53;5022800;28;20309;-81
2022/06/20 01:28:35;;;;;;;16.92;8.02;;;;;;;27.74;48.44;94871.97;5032499;28;20272;-82
2022/06/20 01:31:01;;;;;;;13.95;8.48;;;;;;;27.67;49.12;94870.84;5022600;28;20222;-83
2022/06/20 01:33:28;;;;;;;13.52;8.30;;;;;;;27.67;49.38;94870.84;5031854;28;20226;-83
2022/06/20 01:38:42;;;;;;;10.80;9.07;;;;;;;27.60;50.17;94879.22;5032403;28;20205;-83
2022/06/20 01:43:59;;;;;;;13.30;8.75;;;;;;;27.52;50.79;94879.88;5031626;28;20232;-82
2022/06/20 01:46:28;;;;;;;12.05;8.70;;;;;;;27.48;50.85;94877.09;5032195;28;20244;-83
2022/06/20 01:48:59;;;;;;;10.25;8.45;;;;;;;27.47;50.14;94874.72;5032106;28;20263;-82
2022/06/20 01:51:31;;;;;;;14.65;8.05;;;;;;;27.46;50.01;94865.25;5031470;28;20655;-83
2022/06/20 01:53:59;;;;;;;14.93;9.15;;;;;;;27.44;49.69;94870.81;5031848;28;20284;-82
2022/06/20 01:56:28;;;;;;;13.98;8.00;;;;;;;27.43;49.63;94874.53;5031901;28;20684;-82
2022/06/20 01:58:59;;;;;;;13.93;8.07;;;;;;;27.43;49.47;94885.13;5032626;28;20209;-81
2022/06/20 02:01:29;;;;;;;11.63;7.90;;;;;;;27.39;49.28;94883.38;5031463;28;20732;-81
2022/06/20 02:03:56;;;;;;;17.20;8.35;;;;;;;27.37;49.14;94882.88;5031190;28;20233;-81
2022/06/20 02:06:22;;;;;;;13.57;8.13;;;;;;;27.37;48.61;94888.16;5031469;28;20279;-84
2022/06/20 02:08:53;;;;;;;15.23;8.13;;;;;;;27.33;48.05;94890.63;5032000;28;20682;-82
2022/06/20 02:11:23;;;;;;;15.65;8.27;;;;;;;27.37;47.73;94882.88;5030785;28;20225;-83
2022/06/20 02:13:55;;;;;;;17.15;7.72;;;;;;;27.37;47.62;94885.53;5030811;28;20221;-83
2022/06/20 02:16:26;;;;;;;14.07;7.80;;;;;;;27.37;47.78;94880.25;5031877;28;20219;-83
2022/06/20 02:18:57;;;;;;;13.95;8.02;;;;;;;27.39;47.34;94881.50;5032088;28;20272;-81
2022/06/20 02:21:27;;;;;;;14.10;7.53;;;;;;;27.39;47.07;94873.56;5030651;28;20221;-83
2022/06/20 02:23:58;;;;;;;12.20;7.60;;;;;;;27.43;47.20;94879.06;5030966;28;20221;-83
2022/06/20 02:26:24;;;;;;;12.88;8.10;;;;;;;27.42;47.16;94875.63;5031422;28;20214;-83
2022/06/20 02:28:56;;;;;;;14.88;7.93;;;;;;;27.32;46.39;94885.66;5031661;28;20308;-81
2022/06/20 02:31:25;;;;;;;15.48;7.55;;;;;;;27.36;46.55;94886.59;5030476;28;20198;-81
2022/06/20 02:33:51;;;;;;;17.58;8.55;;;;;;;27.28;46.67;94888.13;5030755;28;20702;-81
2022/06/20 02:36:18;;;;;;;14.90;7.78;;;;;;;27.26;46.33;94884.22;5030954;28;20577;-83
2022/06/20 02:38:46;;;;;;;11.75;7.60;;;;;;;27.25;46.17;94887.94;5031352;28;20397;-81
2022/06/20 02:41:14;;;;;;;15.57;7.60;;;;;;;27.17;46.08;94884.13;5030317;28;20388;-81
2022/06/20 02:43:45;;;;;;;12.30;7.63;;;;;;;27.13;46.11;94894.50;5031063;28;20276;-82
2022/06/20 02:46:16;;;;;;;12.75;7.50;;;;;;;27.15;46.15;94889.69;5031500;28;20206;-84
2022/06/20 02:48:48;;;;;;;11.80;7.55;;;;;;;27.13;46.22;94883.16;5011855;28;20230;-83
2022/06/20 02:51:20;;;;;;;13.10;7.95;;;;;;;27.06;46.52;94883.56;5011091;28;20211;-81
2022/06/20 02:53:50;;;;;;;15.57;7.80;;;;;;;27.03;46.48;94881.50;5029596;28;20597;-83
2022/06/20 02:56:20;;;;;;;15.90;8.63;;;;;;;27.00;46.83;94883.97;5031461;28;20256;-83
2022/06/20 02:58:51;;;;;;;16.92;7.55;;;;;;;27.01;46.73;94883.66;5030527;28;20285;-83
2022/06/20 03:01:24;;;;;;;13.63;7.78;;;;;;;26.94;46.83;94878.00;5030333;28;20198;-82
2022/06/20 03:03:57;;;;;;;16.00;7.97;;;;;;;26.88;47.04;94879.19;5030049;28;20228;-82
2022/06/20 03:06:27;;;;;;;16.30;7.93;;;;;;;26.89;47.00;94878.09;5031177;28;20259;-80
2022/06/20 03:08:55;;;;;;;12.02;7.97;;;;;;;26.89;46.86;94883.38;5030269;28;20248;-82
2022/06/20 03:11:23;;;;;;;11.27;8.07;;;;;;;26.88;46.81;94875.75;5030379;28;20206;-81
2022/06/20 03:13:51;;;;;;;10.52;7.57;;;;;;;26.86;47.18;94876.03;5030007;28;20275;-83
2022/06/20 03:16:18;;;;;;;15.13;7.80;;;;;;;26.86;46.91;94872.63;5033291;28;20209;-83
2022/06/20 03:18:49;;;;;;;12.07;7.70;;;;;;;26.91;46.45;94878.59;5034226;28;20260;-81
2022/06/20 03:21:20;;;;;;;14.60;8.25;;;;;;;26.95;46.71;94884.84;5034977;28;20218;-82
2022/06/20 03:23:46;;;;;;;16.77;8.30;;;;;;;26.96;46.69;94877.69;5034394;28;20644;-81
2022/06/20 03:26:18;;;;;;;11.63;7.85;;;;;;;26.94;46.50;94885.13;5035161;28;20252;-83
2022/06/20 03:28:45;;;;;;;14.85;8.68;;;;;;;26.94;46.50;94882.50;5034833;28;20202;-81
2022/06/20 03:31:12;;;;;;;14.48;7.78;;;;;;;26.96;46.19;94880.34;5033368;28;20648;-81
2022/06/20 03:33:39;;;;;;;13.82;7.45;;;;;;;26.96;46.53;94875.84;5034008;28;20283;-83
2022/06/20 03:36:09;;;;;;;17.77;8.77;;;;;;;26.95;46.18;94881.44;5035105;28;20202;-82
2022/06/20 03:38:39;;;;;;;18.85;8.10;;;;;;;26.96;46.07;94877.69;5034313;28;20194;-82
2022/06/20 03:41:12;;;;;;;18.60;6.45;;;;;;;27.02;48.10;94879.94;5034889;28;20277;-86
2022/06/20 03:43:41;;;;;;;12.48;6.93;;;;;;;27.17;48.93;94876.19;5042991;28;20230;-87
2022/06/20 03:46:15;;;;;;;13.20;7.40;;;;;;;27.34;46.64;94881.63;5048384;28;20264;-88
2022/06/20 03:48:54;;;;;;;14.40;8.13;;;;;;;27.41;46.87;94884.63;5048836;28;20204;-87
2022/06/20 03:51:24;;;;;;;16.23;7.10;;;;;;;27.49;47.35;94891.88;5048494;28;20200;-87
2022/06/20 03:54:08;;;;;;;15.65;8.18;;;;;;;27.54;45.17;94890.94;5047709;28;20226;-86
2022/06/20 03:56:41;;;;;;;14.27;8.55;;;;;;;27.58;45.53;94885.88;5048127;28;20202;-87
2022/06/20 03:59:12;;;;;;;14.43;7.82;;;;;;;27.58;45.92;94891.16;5047763;28;20190;-87
2022/06/20 04:01:45;;;;;;;13.07;7.07;;;;;;;27.56;45.21;94890.66;5045570;28;20206;-83
2022/06/20 04:04:18;;;;;;;16.45;7.82;;;;;;;27.45;45.23;94893.53;5033188;28;20234;-82
2022/06/20 04:06:49;;;;;;;15.95;8.00;;;;;;;27.34;45.17;94892.19;5033316;28;20198;-83
2022/06/20 04:12:13;;;;;;;13.50;7.60;;;;;;;27.18;45.43;94902.31;5028098;28;22672;-82
2022/06/20 04:14:46;;;;;;;12.30;7.93;;;;;;;27.11;46.16;94907.25;5033790;28;20292;-83
2022/06/20 04:20:08;;;;;;;16.35;8.02;;;;;;;27.04;46.36;94908.72;5033067;28;20233;-79
2022/06/20 04:22:39;;;;;;;15.25;7.95;;;;;;;27.00;46.65;94905.88;5033400;28;20291;-81
2022/06/20 04:25:19;;;;;;;15.18;7.72;;;;;;;27.01;46.73;94914.59;5033452;28;20214;-81
2022/06/20 04:27:51;;;;;;;12.10;8.18;;;;;;;26.93;47.44;94915.28;5034031;28;20248;-83
2022/06/20 04:30:23;;;;;;;15.88;8.02;;;;;;;26.95;46.93;94926.34;5033010;28;20269;-83
2022/06/20 04:32:56;;;;;;;13.15;7.97;;;;;;;26.99;47.20;94928.09;5033887;28;20651;-82
2022/06/20 04:35:28;;;;;;;12.18;7.43;;;;;;;26.99;47.18;94938.66;5034610;28;20220;-83
2022/06/20 04:37:58;;;;;;;16.08;8.35;;;;;;;27.00;47.28;94936.81;5034418;28;20210;-83
2022/06/20 04:40:31;;;;;;;14.73;8.02;;;;;;;26.99;47.52;94941.31;5034770;28;20349;-83
2022/06/20 04:43:03;;;;;;;16.25;8.30;;;;;;;26.97;47.54;94940.81;5033809;28;20279;-81
2022/06/20 04:45:35;;;;;;;12.43;6.95;;;;;;;27.03;47.17;94946.81;5034478;28;20206;-82
2022/06/20 04:48:08;;;;;;;15.30;8.50;;;;;;;27.06;47.16;94949.63;5034263;28;20744;-82
2022/06/20 04:50:35;;;;;;;14.07;7.40;;;;;;;27.13;47.08;94949.25;5033777;28;20230;-82
2022/06/20 04:53:05;;;;;;;12.05;7.50;;;;;;;27.21;46.59;94960.97;5032249;28;20237;-83
2022/06/20 04:55:34;;;;;;;14.63;7.95;;;;;;;27.22;46.81;94962.53;5034362;28;20241;-82
2022/06/20 04:58:04;;;;;;;11.63;7.30;;;;;;;27.28;46.55;94966.66;5034641;28;20202;-82
2022/06/20 05:00:39;;;;;;;19.88;8.10;;;;;;;27.34;46.59;94965.44;5034003;28;20248;-82
2022/06/20 05:03:08;;;;;;;13.98;8.07;;;;;;;27.32;46.91;94972.91;5033798;28;20233;-81
2022/06/20 05:05:44;;;;;;;14.13;8.30;;;;;;;27.22;47.64;94968.59;5033650;28;20206;-83
2022/06/20 05:08:13;;;;;;;11.27;8.00;;;;;;;27.22;48.21;94971.25;5034078;28;20198;-83
2022/06/20 05:10:47;;;;;;;23.98;15.55;;;;;;;27.10;50.48;94968.34;5033563;28;20222;-83
2022/06/20 05:13:18;;;;;;;20.85;14.20;;;;;;;26.91;49.98;94970.28;5033927;28;20226;-83
2022/06/20 05:15:46;;;;;;;16.80;14.60;;;;;;;26.88;51.69;94976.94;5034016;28;20320;-83
2022/06/20 05:18:24;;;;;;;16.02;9.18;;;;;;;26.84;52.39;94983.88;5034351;28;20309;-83
2022/06/20 05:20:55;;;;;;;13.32;9.18;;;;;;;26.82;53.50;94997.38;5033421;28;20328;-83
2022/06/20 05:23:34;;;;;;;14.93;9.00;;;;;;;26.81;55.30;94997.66;5033291;28;20230;-82
2022/06/20 05:26:04;;;;;;;15.07;8.73;;;;;;;26.78;54.54;95000.88;5033887;28;20252;-82
2022/06/20 05:28:33;;;;;;;14.77;8.65;;;;;;;26.70;54.22;95002.34;5033456;28;20202;-83
2022/06/20 05:31:00;;;;;;;12.60;8.00;;;;;;;26.69;55.20;94992.09;5032940;28;20229;-83
2022/06/20 05:33:33;;;;;;;16.73;9.20;;;;;;;26.70;56.13;95004.22;5033228;28;20237;-83
2022/06/20 05:36:05;;;;;;;15.38;9.13;;;;;;;26.73;55.99;95003.63;5033606;28;20222;-82
2022/06/20 05:38:37;;;;;;;12.68;8.80;;;;;;;26.81;56.40;95010.88;5033173;28;20202;-82
2022/06/20 05:41:07;;;;;;;14.95;8.27;;;;;;;26.91;56.10;95012.56;5033322;28;20221;-81
2022/06/20 05:43:36;;;;;;;14.77;9.02;;;;;;;26.93;55.86;95005.91;5032926;28;20257;-83
2022/06/20 05:46:05;;;;;;;20.52;13.80;;;;;;;26.94;54.43;95018.03;5033482;28;20202;-83
2022/06/20 05:48:36;;;;;;;13.88;10.45;;;;;;;26.97;54.57;95027.25;5033270;28;20213;-81
2022/06/20 05:51:04;;;;;;;11.23;8.15;;;;;;;26.91;53.43;95037.13;5032925;28;20806;-82
2022/06/20 05:53:36;;;;;;;13.63;8.43;;;;;;;26.96;53.12;95037.03;5032643;28;20640;-83
2022/06/20 05:56:11;;;;;;;16.02;8.13;;;;;;;27.07;51.71;95048.22;5033606;28;20222;-82
2022/06/20 05:58:42;;;;;;;15.88;7.35;;;;;;;27.15;51.24;95050.16;5033060;28;20201;-81
2022/06/20 06:01:16;;;;;;;13.48;7.45;;;;;;;27.30;50.94;95047.22;5032305;28;20276;-83
2022/06/20 06:03:47;;;;;;;19.15;7.28;;;;;;;27.12;49.96;95050.75;5032060;28;20232;-82
2022/06/20 06:06:20;;;;;;;8.73;7.05;;;;;;;27.12;50.47;95053.41;5032670;28;20252;-81
2022/06/20 06:08:50;;;;;;;17.38;8.10;;;;;;;27.06;50.29;95063.28;5033197;28;20202;-83
2022/06/20 06:11:25;;;;;;;13.10;7.40;;;;;;;26.97;50.67;95062.38;5032695;28;20204;-81
2022/06/20 06:13:59;;;;;;;10.05;7.03;;;;;;;27.06;50.20;95068.56;5032330;28;20226;-83
2022/06/20 06:16:50;;;;;;;13.90;7.10;;;;;;;27.29;49.46;95085.31;5032635;28;20237;-83
2022/06/20 06:19:26;;;;;;;14.27;7.38;;;;;;;27.55;48.93;95082.94;5032985;28;20859;-83
2022/06/20 06:21:54;;;;;;;13.63;7.63;;;;;;;27.72;49.14;95077.84;5032292;28;20198;-82
2022/06/20 06:24:24;;;;;;;11.93;7.05;;;;;;;27.79;47.96;95077.44;5033023;28;20194;-81
2022/06/20 06:26:58;;;;;;;9.05;7.22;;;;;;;27.87;47.68;95084.69;5033095;28;20206;-83
2022/06/20 06:29:27;;;;;;;12.80;7.45;;;;;;;27.91;47.60;95087.50;5032868;28;20256;-83
2022/06/20 06:31:58;;;;;;;13.55;7.65;;;;;;;27.89;48.16;95093.13;5031571;28;20662;-83
2022/06/20 06:34:39;;;;;;;15.10;7.50;;;;;;;27.71;47.63;95101.97;5032701;28;20218;-81
2022/06/20 06:37:12;;;;;;;10.90;7.22;;;;;;;27.69;48.09;95112.84;5033503;28;20202;-83
2022/06/20 06:39:47;;;;;;;14.68;7.40;;;;;;;27.78;48.07;95112.94;5033043;28;20881;-83
2022/06/20 06:42:17;;;;;;;10.90;7.38;;;;;;;27.76;47.99;95113.22;5031684;28;20759;-83
2022/06/20 06:44:47;;;;;;;11.05;7.22;;;;;;;27.87;48.50;95113.03;5032654;28;20670;-82
2022/06/20 06:47:19;;;;;;;14.80;7.55;;;;;;;27.87;48.02;95116.47;5032677;28;20202;-83
2022/06/20 06:49:47;;;;;;;14.43;7.60;;;;;;;27.96;48.12;95121.81;5032704;28;20222;-83
2022/06/20 06:52:20;;;;;;;17.23;10.05;;;;;;;27.98;47.27;95122.31;5031663;28;20236;-82
2022/06/20 06:54:54;;;;;;;11.13;7.82;;;;;;;28.06;46.18;95125.03;5033380;28;20272;-83
2022/06/20 06:57:27;;;;;;;16.42;8.15;;;;;;;28.09;46.17;95126.31;5032621;28;20251;-82
2022/06/20 07:00:14;;;;;;;13.23;7.60;;;;;;;28.26;46.11;95136.31;5032852;28;20218;-82
2022/06/20 07:02:44;;;;;;;16.25;10.40;;;;;;;28.35;46.02;95131.84;5032279;28;20600;-83
2022/06/20 07:05:19;;;;;;;12.90;7.47;;;;;;;28.34;44.93;95135.56;5032559;28;20243;-83
2022/06/20 07:07:51;;;;;;;9.80;7.00;;;;;;;28.32;44.70;95137.72;5032403;28;20669;-83
2022/06/20 07:10:21;;;;;;;13.25;7.00;;;;;;;28.45;44.81;95143.00;5031724;28;20222;-83
2022/06/20 07:12:51;;;;;;;11.90;6.93;;;;;;;28.49;44.79;95143.16;5032261;28;20225;-83
2022/06/20 07:15:20;;;;;;;12.82;7.63;;;;;;;28.44;44.59;95141.44;5032027;28;20226;-84
2022/06/20 07:17:50;;;;;;;9.95;7.00;;;;;;;28.48;43.41;95142.38;5032490;28;20205;-81
2022/06/20 07:20:19;;;;;;;10.60;6.50;;;;;;;28.39;45.07;95138.91;5031815;28;20287;-83
2022/06/20 07:22:48;;;;;;;9.40;6.32;;;;;;;28.42;43.62;95143.59;5031629;28;20236;-83
2022/06/20 07:25:18;;;;;;;11.45;6.22;;;;;;;28.38;43.60;95137.31;5031631;28;20230;-82
2022/06/20 07:27:52;;;;;;;10.38;6.18;;;;;;;28.40;42.54;95139.69;5032412;28;20256;-82
2022/06/20 07:30:21;;;;;;;10.55;6.60;;;;;;;28.53;43.69;95141.50;5030789;28;20280;-83
2022/06/20 07:32:53;;;;;;;10.82;6.20;;;;;;;28.68;42.97;95151.72;5031387;28;20236;-81
2022/06/20 07:35:24;;;;;;;14.15;6.28;;;;;;;28.74;42.77;95157.69;5031757;28;20737;-82
2022/06/20 07:37:54;;;;;;;11.57;5.82;;;;;;;28.84;42.74;95154.84;5031865;28;20202;-81
2022/06/20 07:40:25;;;;;;;10.70;6.38;;;;;;;28.96;42.74;95155.06;5031454;28;20226;-82
2022/06/20 07:42:56;;;;;;;10.45;6.32;;;;;;;28.91;41.55;95165.78;5030675;28;20225;-81
2022/06/20 07:45:28;;;;;;;11.75;6.13;;;;;;;28.87;41.41;95155.00;5031414;28;20212;-83
2022/06/20 07:47:57;;;;;;;10.60;6.43;;;;;;;29.01;41.43;95156.81;5031858;28;20310;-83
2022/06/20 07:50:27;;;;;;;18.48;7.03;;;;;;;29.07;40.97;95161.66;5030784;28;20818;-82
2022/06/20 07:52:57;;;;;;;11.98;6.80;;;;;;;29.07;40.34;95163.53;5031604;28;20651;-83
2022/06/20 07:55:27;;;;;;;8.98;6.10;;;;;;;29.15;40.89;95160.16;5032043;28;20221;-80
2022/06/20 07:58:02;;;;;;;9.38;6.78;;;;;;;29.30;41.27;95164.28;5031994;28;20203;-83
2022/06/20 08:00:33;;;;;;;13.80;6.40;;;;;;;29.37;41.41;95167.28;5031577;28;20228;-82
2022/06/20 08:03:07;;;;;;;11.70;6.47;;;;;;;29.41;41.50;95174.38;5033067;28;20237;-80
2022/06/20 08:05:38;;;;;;;10.77;5.95;;;;;;;29.41;40.77;95177.03;5035559;28;20206;-83
2022/06/20 08:08:12;;;;;;;14.25;7.03;;;;;;;29.28;40.83;95174.41;5034895;28;20194;-80
2022/06/20 08:10:45;;;;;;;13.82;6.68;;;;;;;29.25;40.89;95183.00;5033976;28;20287;-83
2022/06/20 08:13:17;;;;;;;13.15;6.40;;;;;;;29.09;39.82;95180.72;5034292;28;20807;-84
2022/06/20 08:15:50;;;;;;;9.82;5.20;;;;;;;28.99;38.42;95178.31;5034842;28;20225;-82
2022/06/20 08:18:16;;;;;;;10.52;5.00;;;;;;;29.03;38.32;95174.00;5035583;28;20669;-83
2022/06/20 08:20:48;;;;;;;11.10;5.55;;;;;;;29.01;38.74;95178.81;5034047;28;20299;-82
2022/06/20 08:23:21;;;;;;;10.32;5.85;;;;;;;29.13;39.36;95189.63;5034431;28;20230;-83
2022/06/20 08:25:53;;;;;;;9.88;5.65;;;;;;;29.39;39.20;95195.13;5034792;28;20635;-83
2022/06/20 08:28:23;;;;;;;10.00;6.63;;;;;;;29.40;39.29;95201.19;5034705;28;20636;-82
2022/06/20 08:30:53;;;;;;;13.80;11.05;;;;;;;29.44;38.85;95197.59;5033507;28;20225;-83
2022/06/20 08:33:24;;;;;;;10.75;5.20;;;;;;;29.36;38.94;95197.56;5034639;28;20272;-82
2022/06/20 08:35:54;;;;;;;8.20;5.30;;;;;;;29.38;38.84;95204.13;5034390;28;20283;-83
2022/06/20 08:38:28;;;;;;;12.20;5.28;;;;;;;29.53;38.34;95201.09;5034398;28;20229;-81
2022/06/20 08:41:23;;;;;;;9.82;5.40;;;;;;;29.55;38.27;95211.41;5033021;28;20740;-81
2022/06/20 08:44:05;;;;;;;8.50;5.53;;;;;;;29.55;38.33;95206.09;5033480;28;20229;-82
2022/06/20 08:46:49;;;;;;;9.20;5.53;;;;;;;29.58;38.02;95208.16;5033534;28;20194;-81
2022/06/20 08:50:02;;;;;;;15.15;5.68;;;;;;;29.69;38.54;95209.44;5034468;28;20224;-82
2022/06/20 08:52:54;;;;;;;12.63;5.50;;;;;;;29.67;37.82;95216.13;5028279;28;20230;-83
2022/06/20 08:55:41;;;;;;;9.02;5.03;;;;;;;29.81;37.89;95206.22;5033705;28;20222;-81
2022/06/20 08:58:20;;;;;;;12.45;5.05;;;;;;;29.95;37.63;95208.75;5033592;28;20202;-83
2022/06/20 09:00:55;;;;;;;6.90;5.05;;;;;;;30.25;37.33;95197.28;5032792;28;20800;-81
2022/06/20 09:03:35;;;;;;;10.02;5.43;;;;;;;30.50;37.43;95199.19;5032933;28;20225;-82
2022/06/20 09:06:19;;;;;;;11.13;5.80;;;;;;;30.81;37.29;95201.72;5033597;28;20245;-83
2022/06/20 09:09:05;;;;;;;8.18;5.05;;;;;;;30.83;35.37;95201.38;5033583;28;20210;-82
2022/06/20 09:11:43;;;;;;;12.02;4.90;;;;;;;30.55;35.10;95211.56;5032419;28;20198;-82
2022/06/20 09:14:32;;;;;;;10.05;5.18;;;;;;;30.52;35.52;95207.63;5032370;28;20280;-84
2022/06/20 09:17:09;;;;;;;9.05;4.80;;;;;;;30.34;36.41;95211.38;5033525;28;20285;-83
2022/06/20 09:19:47;;;;;;;10.93;4.93;;;;;;;30.41;36.08;95200.25;5032802;28;20222;-82
2022/06/20 09:22:25;;;;;;;9.45;6.20;;;;;;;30.73;35.19;95201.72;5032037;28;20319;-83
2022/06/20 09:25:02;;;;;;;7.60;6.03;;;;;;;31.04;35.91;95204.19;5033361;28;20210;-83
2022/06/20 09:27:40;;;;;;;7.80;4.70;;;;;;;31.35;35.41;95199.47;5033206;28;20227;-81
2022/06/20 09:30:11;;;;;;;9.43;4.70;;;;;;;31.53;34.63;95200.19;5031823;28;20230;-83
2022/06/20 09:33:06;;;;;;;7.93;4.85;;;;;;;31.82;34.62;95189.59;5032582;28;20230;-83
2022/06/20 09:35:47;;;;;;;5.75;4.53;;;;;;;31.97;34.04;95195.47;5030337;28;20268;-83
2022/06/20 09:38:39;;;;;;;11.20;4.53;;;;;;;31.99;33.27;95199.38;5032758;28;20206;-82
2022/06/20 09:41:14;;;;;;;9.93;4.63;;;;;;;31.88;33.35;95193.66;5031769;28;20226;-83
2022/06/20 09:43:50;;;;;;;6.90;4.35;;;;;;;32.00;33.39;95184.97;5031954;28;20724;-83
2022/06/20 09:46:24;;;;;;;7.95;4.30;;;;;;;32.04;33.12;95198.41;5032581;28;20206;-83
2022/06/20 09:49:01;;;;;;;8.02;4.18;;;;;;;31.80;32.92;95196.34;5032258;28;20771;-83
2022/06/20 09:51:33;;;;;;;8.73;4.38;;;;;;;31.74;34.56;95197.66;5031878;28;20206;-82
2022/06/20 09:54:10;;;;;;;7.40;4.22;;;;;;;31.66;33.86;95201.13;5031911;28;20280;-82
2022/06/20 09:56:43;;;;;;;8.68;4.40;;;;;;;31.44;33.53;95200.22;5032257;28;20226;-81
2022/06/20 09:59:18;;;;;;;7.40;4.10;;;;;;;31.12;33.63;95192.78;5032438;28;20206;-82
2022/06/20 10:01:51;;;;;;;5.80;4.80;;;;;;;31.31;33.96;95193.22;5031136;28;20866;-83
2022/06/20 10:04:25;;;;;;;6.22;4.28;;;;;;;31.67;32.99;95198.13;5031960;28;20226;-82
2022/06/20 10:07:02;;;;;;;7.88;4.32;;;;;;;31.39;33.02;95199.59;5031958;28;20678;-83
2022/06/20 10:09:39;;;;;;;9.90;4.00;;;;;;;31.40;32.13;95185.19;5032120;28;20218;-82
2022/06/20 10:12:14;;;;;;;6.88;4.25;;;;;;;31.54;32.09;95201.75;5031691;28;20210;-83
2022/06/20 10:14:51;;;;;;;5.65;4.00;;;;;;;31.87;32.24;95197.41;5032752;28;20209;-81
2022/06/20 10:17:26;;;;;;;7.03;3.83;;;;;;;31.89;32.25;95197.09;5031543;28;20284;-83
2022/06/20 10:20:04;;;;;;;6.93;4.30;;;;;;;31.68;32.31;95198.91;5031688;28;20218;-81
2022/06/20 10:22:40;;;;;;;7.55;4.07;;;;;;;31.50;32.69;95198.94;5030930;28;20222;-81
2022/06/20 10:25:42;;;;;;;7.00;4.20;;;;;;;31.32;33.32;95197.44;5031039;28;20210;-82
2022/06/20 10:28:14;;;;;;;6.07;3.80;;;;;;;31.22;32.85;95195.88;5031346;28;20266;-83
2022/06/20 10:30:47;;;;;;;7.00;4.00;;;;;;;31.41;32.99;95192.84;5030880;28;20222;-83
2022/06/20 10:33:29;;;;;;;5.05;3.97;;;;;;;31.74;32.01;95193.09;5030796;28;20226;-82
2022/06/20 10:36:11;;;;;;;8.27;4.78;;;;;;;31.96;32.18;95178.72;5031955;28;20318;-81
2022/06/20 10:38:41;;;;;;;7.22;4.18;;;;;;;31.76;33.31;95190.88;5031766;28;20214;-81
2022/06/20 10:41:10;;;;;;;8.88;4.45;;;;;;;31.76;32.14;95190.09;5030325;28;20229;-81
2022/06/20 10:43:48;;;;;;;10.13;4.70;;;;;;;32.29;32.55;95186.09;5031402;28;20232;-82
2022/06/20 10:46:24;;;;;;;6.65;4.30;;;;;;;32.04;33.87;95180.56;5031595;28;20198;-83
2022/06/20 10:49:27;;;;;;;7.70;6.28;;;;;;;32.24;31.71;95185.16;5031553;28;20248;-82
2022/06/20 10:52:06;;;;;;;11.25;4.20;;;;;;;32.11;30.53;95194.16;5030501;28;20259;-82
2022/06/20 10:54:50;;;;;;;6.07;3.70;;;;;;;31.64;31.19;95195.28;5031335;28;20209;-84
2022/06/20 10:57:29;;;;;;;10.98;4.25;;;;;;;32.03;31.88;95175.53;5031259;28;20226;-82
2022/06/20 11:00:02;;;;;;;4.90;3.97;;;;;;;32.39;31.88;95164.38;5030543;28;20221;-81
2022/06/20 11:02:39;;;;;;;8.75;3.95;;;;;;;32.32;31.03;95175.56;5030547;28;20230;-83
2022/06/20 11:05:16;;;;;;;6.47;4.05;;;;;;;32.46;30.73;95175.28;5030602;28;20209;-84
2022/06/20 11:07:51;;;;;;;6.65;4.35;;;;;;;32.65;30.89;95175.63;5030837;28;20228;-82
2022/06/20 11:10:33;;;;;;;7.85;3.85;;;;;;;32.63;30.46;95182.38;5029965;28;20225;-81
2022/06/20 11:13:09;;;;;;;5.30;3.75;;;;;;;32.45;30.07;95171.06;5030583;28;20226;-83
2022/06/20 11:15:43;;;;;;;5.50;3.45;;;;;;;32.55;30.21;95162.66;5030798;28;20202;-82
2022/06/20 11:18:25;;;;;;;5.85;3.90;;;;;;;32.55;30.35;95170.66;5030657;28;20205;-81
2022/06/20 11:20:59;;;;;;;5.45;3.88;;;;;;;32.83;29.87;95158.38;5030196;28;20283;-81
2022/06/20 11:23:39;;;;;;;4.72;3.88;;;;;;;32.92;30.50;95158.28;5030181;28;20233;-81
2022/06/20 11:26:12;;;;;;;11.95;7.18;;;;;;;33.01;30.61;95152.88;5030586;28;20205;-81
2022/06/20 11:28:53;;;;;;;9.27;5.22;;;;;;;33.03;29.82;95153.31;5030737;28;20275;-82
2022/06/20 11:31:28;;;;;;;5.22;4.40;;;;;;;33.21;31.13;95152.03;5029487;28;20222;-82
2022/06/20 11:34:19;;;;;;;8.35;4.10;;;;;;;33.41;30.67;95153.09;5030035;28;20234;-82
2022/06/20 11:37:05;;;;;;;5.28;4.30;;;;;;;33.48;30.42;95156.00;5030884;28;20218;-82
2022/06/20 11:39:46;;;;;;;6.55;4.10;;;;;;;33.43;29.76;95167.69;5034512;28;20767;-82
2022/06/20 11:42:30;;;;;;;8.75;4.05;;;;;;;33.41;29.53;95161.88;5034112;28;20705;-82
2022/06/20 11:45:16;;;;;;;6.93;4.28;;;;;;;33.33;29.59;95153.97;5035138;28;20743;-82
2022/06/20 11:48:01;;;;;;;5.88;3.60;;;;;;;33.37;30.13;95160.97;5035202;28;20206;-82
2022/06/20 11:50:40;;;;;;;5.55;4.00;;;;;;;33.31;29.72;95150.84;5034510;28;21128;-83
2022/06/20 11:53:31;;;;;;;7.93;3.95;;;;;;;33.18;29.74;95152.69;5034615;28;20287;-83
2022/06/20 11:56:06;;;;;;;6.95;4.00;;;;;;;33.09;29.70;95158.13;5035021;28;20273;-81
2022/06/20 11:58:51;;;;;;;4.30;3.90;;;;;;;33.14;29.52;95157.13;5035531;28;20622;-83
2022/06/20 12:01:22;;;;;;;5.15;4.07;;;;;;;33.32;29.35;95145.16;5034206;28;20321;-84
2022/06/20 12:03:56;;;;;;;7.15;4.20;;;;;;;33.33;29.96;95149.41;5033948;28;20586;-81
2022/06/20 12:06:31;;;;;;;7.00;4.22;;;;;;;33.42;30.27;95144.75;5034488;28;20224;-81